Time;durP1;ratioP1;P1;durP2;ratioP2;P2;SDS_P1;SDS_P2;PMS_P1;PMS_P2;Temp;Humidity;BMP_temperature;BMP_pressure;BME280_temperature;BME280_humidity;BME280_pressure;Samples;Min_cycle;Max_cycle;Signal;HPM_P1;HPM_P2
2021/04/22 00:00:37;;;;;;;3.30;2.40;;;20.50;53.70;;;;;;5092674;28;20534;-58
2021/04/22 00:03:03;;;;;;;3.70;2.50;;;20.50;53.70;;;;;;5092852;28;20522;-58
2021/04/22 00:05:33;;;;;;;3.65;3.05;;;20.50;53.60;;;;;;5092169;28;20046;-59
2021/04/22 00:08:00;;;;;;;2.55;2.35;;;20.50;53.60;;;;;;5092937;28;20503;-57
2021/04/22 00:10:31;;;;;;;2.75;2.53;;;20.50;53.50;;;;;;5092272;28;20062;-58
2021/04/22 00:12:57;;;;;;;2.93;2.63;;;20.50;53.60;;;;;;5092613;28;20064;-52
2021/04/22 00:15:22;;;;;;;3.47;2.40;;;20.50;53.50;;;;;;5092363;28;20066;-61
2021/04/22 00:17:54;;;;;;;2.90;2.30;;;20.50;53.50;;;;;;5092914;28;20377;-58
2021/04/22 00:20:21;;;;;;;2.72;2.10;;;20.50;53.60;;;;;;5092880;28;20028;-57
2021/04/22 00:22:46;;;;;;;4.50;2.45;;;20.50;53.40;;;;;;5092134;28;20044;-57
2021/04/22 00:25:13;;;;;;;3.28;2.53;;;20.50;53.40;;;;;;5092498;28;20024;-58
2021/04/22 00:27:38;;;;;;;3.92;2.78;;;20.50;53.20;;;;;;5091871;28;20028;-57
2021/04/22 00:30:07;;;;;;;2.75;2.20;;;20.50;53.30;;;;;;5092648;28;20028;-58
2021/04/22 00:32:32;;;;;;;3.60;2.28;;;20.50;53.30;;;;;;5091913;28;20047;-57
2021/04/22 00:34:58;;;;;;;2.78;2.35;;;20.50;53.30;;;;;;5092599;28;20377;-57
2021/04/22 00:37:24;;;;;;;2.70;2.10;;;20.50;53.30;;;;;;5091996;28;20024;-61
2021/04/22 00:39:50;;;;;;;2.42;2.17;;;20.50;53.10;;;;;;5091627;28;20035;-59
2021/04/22 00:42:15;;;;;;;3.10;2.80;;;20.50;53.20;;;;;;5092032;28;20065;-58
2021/04/22 00:44:41;;;;;;;3.30;2.33;;;20.50;53.10;;;;;;5090804;28;20666;-59
2021/04/22 00:47:08;;;;;;;4.13;2.85;;;20.50;53.10;;;;;;5090810;28;20477;-58
2021/04/22 00:49:34;;;;;;;3.40;2.30;;;20.50;53.10;;;;;;5091726;28;20034;-59
2021/04/22 00:52:00;;;;;;;3.83;2.47;;;20.50;53.60;;;;;;5091580;28;20035;-59
2021/04/22 00:54:26;;;;;;;3.10;2.30;;;20.50;53.00;;;;;;5091983;28;20470;-61
2021/04/22 00:56:51;;;;;;;2.97;2.30;;;20.50;52.90;;;;;;5092370;28;20039;-58
2021/04/22 00:59:17;;;;;;;2.67;2.25;;;20.50;52.90;;;;;;5092358;28;20024;-58
2021/04/22 01:01:43;;;;;;;3.80;2.63;;;20.50;52.70;;;;;;5092101;28;20035;-52
2021/04/22 01:04:09;;;;;;;3.70;2.35;;;20.50;52.80;;;;;;5090563;28;20119;-60
2021/04/22 01:06:35;;;;;;;4.35;2.50;;;20.50;52.90;;;;;;5085452;28;20541;-57
2021/04/22 01:09:03;;;;;;;2.72;2.42;;;20.50;52.90;;;;;;5086393;28;20028;-60
2021/04/22 01:11:30;;;;;;;3.70;2.65;;;20.50;52.90;;;;;;5082406;28;20051;-59
2021/04/22 01:13:56;;;;;;;3.70;2.35;;;20.50;52.90;;;;;;5086856;28;20055;-59
2021/04/22 01:16:22;;;;;;;2.80;2.45;;;20.50;53.00;;;;;;5091449;28;20064;-59
2021/04/22 01:18:48;;;;;;;3.45;2.35;;;20.50;53.00;;;;;;5091510;28;20032;-58
2021/04/22 01:21:24;;;;;;;2.80;2.40;;;20.50;53.00;;;;;;5090725;28;20070;-54
2021/04/22 01:23:50;;;;;;;3.70;2.55;;;20.50;53.00;;;;;;5091576;28;20028;-58
2021/04/22 01:26:19;;;;;;;3.10;2.78;;;20.50;53.10;;;;;;5088359;28;20032;-60
2021/04/22 01:28:45;;;;;;;3.25;2.50;;;20.60;53.20;;;;;;5086615;28;20020;-57
2021/04/22 01:31:10;;;;;;;3.33;2.38;;;20.60;53.20;;;;;;5085387;28;20040;-58
2021/04/22 01:33:36;;;;;;;3.28;2.45;;;20.50;53.10;;;;;;5086856;28;20061;-59
2021/04/22 01:36:02;;;;;;;3.20;2.42;;;20.60;53.20;;;;;;5089177;28;20034;-58
2021/04/22 01:38:29;;;;;;;2.78;2.05;;;20.60;53.20;;;;;;5082528;28;20175;-56
2021/04/22 01:40:56;;;;;;;4.00;2.38;;;20.60;53.20;;;;;;5084704;28;20031;-57
2021/04/22 01:43:22;;;;;;;3.88;2.72;;;20.60;53.30;;;;;;5086176;28;20061;-59
2021/04/22 01:45:47;;;;;;;3.05;2.42;;;20.60;53.20;;;;;;5083120;28;20059;-59
2021/04/22 01:48:14;;;;;;;3.45;2.28;;;20.60;53.30;;;;;;5085474;28;20047;-59
2021/04/22 01:50:39;;;;;;;3.83;3.08;;;20.50;53.20;;;;;;5083708;28;20028;-60
2021/04/22 01:53:07;;;;;;;2.97;2.22;;;20.60;53.30;;;;;;5084418;28;20043;-58
2021/04/22 01:55:36;;;;;;;2.97;2.65;;;20.60;53.30;;;;;;5082918;28;20044;-58
2021/04/22 01:58:03;;;;;;;3.50;2.40;;;20.60;53.30;;;;;;5089587;28;20020;-56
2021/04/22 02:00:50;;;;;;;3.00;2.53;;;20.60;53.30;;;;;;5085685;28;20394;-59
2021/04/22 02:03:16;;;;;;;2.85;2.40;;;20.60;53.30;;;;;;5084822;28;20052;-56
2021/04/22 02:05:42;;;;;;;2.80;2.50;;;20.60;53.40;;;;;;5082553;28;20062;-59
2021/04/22 02:08:10;;;;;;;2.67;2.08;;;20.60;53.30;;;;;;5084356;28;20024;-59
2021/04/22 02:10:37;;;;;;;4.70;3.00;;;20.60;53.30;;;;;;5086412;28;20427;-59
2021/04/22 02:13:04;;;;;;;3.17;2.45;;;20.60;53.30;;;;;;5087250;28;20397;-56
2021/04/22 02:15:31;;;;;;;2.85;2.10;;;20.60;53.30;;;;;;5084943;28;20052;-58
2021/04/22 02:17:58;;;;;;;4.97;2.47;;;20.60;53.30;;;;;;5082934;28;20537;-57
2021/04/22 02:20:24;;;;;;;3.55;2.70;;;20.60;53.30;;;;;;5085928;28;20554;-62
2021/04/22 02:22:51;;;;;;;3.13;2.42;;;20.60;53.20;;;;;;5087228;28;20032;-58
2021/04/22 02:25:19;;;;;;;2.80;2.17;;;20.60;53.20;;;;;;5086557;28;20043;-58
2021/04/22 02:27:46;;;;;;;3.10;2.60;;;20.60;53.20;;;;;;5083094;28;20492;-59
2021/04/22 02:30:19;;;;;;;3.72;2.65;;;20.60;53.20;;;;;;5083282;28;20032;-58
2021/04/22 02:32:45;;;;;;;3.00;2.42;;;20.60;53.20;;;;;;5080912;28;20043;-57
2021/04/22 02:35:14;;;;;;;3.38;2.22;;;20.60;53.20;;;;;;5084807;28;20024;-58
2021/04/22 02:37:40;;;;;;;3.35;2.65;;;20.60;53.10;;;;;;5083265;28;20029;-59
2021/04/22 02:40:12;;;;;;;2.88;2.58;;;20.60;53.20;;;;;;5083607;28;20354;-58
2021/04/22 02:42:37;;;;;;;2.90;2.22;;;20.60;53.20;;;;;;5086131;28;20559;-60
2021/04/22 02:45:09;;;;;;;3.25;2.35;;;20.60;53.10;;;;;;5085173;28;20093;-54
2021/04/22 02:47:35;;;;;;;3.75;2.53;;;20.60;53.10;;;;;;5082538;28;20035;-48
2021/04/22 02:50:03;;;;;;;3.33;2.47;;;20.60;53.00;;;;;;5084520;28;20028;-60
2021/04/22 02:52:29;;;;;;;3.85;2.70;;;20.60;53.00;;;;;;5083449;28;20068;-59
2021/04/22 02:54:54;;;;;;;3.50;2.55;;;20.60;53.00;;;;;;5086867;28;20554;-59
2021/04/22 02:57:20;;;;;;;3.30;2.83;;;20.60;52.90;;;;;;5090395;28;20050;-58
2021/04/22 02:59:45;;;;;;;3.33;2.75;;;20.60;52.90;;;;;;5090185;28;20026;-50
2021/04/22 03:02:11;;;;;;;3.85;2.78;;;20.60;52.90;;;;;;5092058;28;20056;-58
2021/04/22 03:04:37;;;;;;;5.45;3.03;;;20.60;52.90;;;;;;5093374;28;20152;-59
2021/04/22 03:07:03;;;;;;;2.90;2.58;;;20.60;52.80;;;;;;5094469;28;20024;-58
2021/04/22 03:09:28;;;;;;;4.25;3.22;;;20.60;52.70;;;;;;5093821;28;20020;-59
2021/04/22 03:11:54;;;;;;;5.85;2.70;;;20.60;52.80;;;;;;5093803;28;20101;-59
2021/04/22 03:14:20;;;;;;;4.50;2.38;;;20.60;52.80;;;;;;5094443;28;20020;-59
2021/04/22 03:16:45;;;;;;;4.00;2.95;;;20.60;52.70;;;;;;5092727;28;20036;-59
2021/04/22 03:19:11;;;;;;;3.28;2.97;;;20.60;52.80;;;;;;5094309;28;20060;-58
2021/04/22 03:21:36;;;;;;;3.38;2.75;;;20.60;52.60;;;;;;5093464;28;20032;-59
2021/04/22 03:24:03;;;;;;;4.10;2.80;;;20.60;52.60;;;;;;5094063;28;20032;-59
2021/04/22 03:26:28;;;;;;;3.38;3.00;;;20.60;52.60;;;;;;5093396;28;20036;-61
2021/04/22 03:28:54;;;;;;;3.28;2.65;;;20.60;52.50;;;;;;5093808;28;20024;-59
2021/04/22 03:31:20;;;;;;;3.65;2.85;;;20.60;52.50;;;;;;5093632;28;20100;-58
2021/04/22 03:33:45;;;;;;;4.45;2.60;;;20.60;52.50;;;;;;5093228;28;20060;-59
2021/04/22 03:36:11;;;;;;;3.25;2.85;;;20.60;52.40;;;;;;5093792;28;20028;-57
2021/04/22 03:38:37;;;;;;;6.60;2.80;;;20.60;52.50;;;;;;5093191;28;20028;-59
2021/04/22 03:41:02;;;;;;;4.10;2.83;;;20.60;52.50;;;;;;5093939;28;20027;-59
2021/04/22 03:43:28;;;;;;;4.40;2.80;;;20.60;52.40;;;;;;5092823;28;20457;-62
2021/04/22 03:45:54;;;;;;;4.47;2.95;;;20.60;52.30;;;;;;5093544;28;20024;-59
2021/04/22 03:48:19;;;;;;;3.97;2.85;;;20.60;52.30;;;;;;5093570;28;20016;-58
2021/04/22 03:50:45;;;;;;;3.53;2.80;;;20.70;52.40;;;;;;5092744;28;20024;-58
2021/04/22 03:53:11;;;;;;;3.42;2.75;;;20.60;52.30;;;;;;5093740;28;20128;-59
2021/04/22 03:55:37;;;;;;;3.08;2.50;;;20.60;52.30;;;;;;5092336;28;20075;-58
2021/04/22 03:58:02;;;;;;;3.83;3.17;;;20.60;52.20;;;;;;5093172;28;20474;-59
2021/04/22 04:00:28;;;;;;;6.95;2.80;;;20.60;52.20;;;;;;5092959;28;20082;-61
2021/04/22 04:02:54;;;;;;;3.17;2.72;;;20.60;52.20;;;;;;5091566;28;20032;-59
2021/04/22 04:05:19;;;;;;;4.68;2.90;;;20.60;52.20;;;;;;5093498;28;20373;-58
2021/04/22 04:07:46;;;;;;;2.83;2.42;;;20.60;52.10;;;;;;5092386;28;20031;-58
2021/04/22 04:10:12;;;;;;;4.43;2.85;;;20.60;52.00;;;;;;5093394;28;20036;-58
2021/04/22 04:12:38;;;;;;;3.35;3.05;;;20.60;52.00;;;;;;5091779;28;20036;-60
2021/04/22 04:15:06;;;;;;;4.45;2.63;;;20.60;52.00;;;;;;5092729;28;20414;-59
2021/04/22 04:17:32;;;;;;;4.80;2.92;;;20.60;52.00;;;;;;5092381;28;20070;-59
2021/04/22 04:19:58;;;;;;;4.90;2.88;;;20.60;51.90;;;;;;5093656;28;20122;-59
2021/04/22 04:22:24;;;;;;;4.28;2.78;;;20.60;52.60;;;;;;5093397;28;20106;-58
2021/04/22 04:24:49;;;;;;;3.60;2.78;;;20.70;52.00;;;;;;5091945;28;20127;-59
2021/04/22 04:27:15;;;;;;;5.95;3.10;;;20.70;51.90;;;;;;5092962;28;20028;-58
2021/04/22 04:29:41;;;;;;;4.57;3.03;;;20.60;51.80;;;;;;5092189;28;20050;-59
2021/04/22 04:32:07;;;;;;;3.30;2.88;;;20.70;51.90;;;;;;5092811;28;20036;-61
2021/04/22 04:34:33;;;;;;;3.90;3.13;;;20.60;51.70;;;;;;5091851;28;20024;-59
2021/04/22 04:37:02;;;;;;;4.65;2.90;;;20.70;51.80;;;;;;5091835;28;20028;-60
2021/04/22 04:39:28;;;;;;;3.85;2.70;;;20.60;51.70;;;;;;5086757;28;20078;-59
2021/04/22 04:41:53;;;;;;;4.97;2.78;;;20.70;51.80;;;;;;5088691;28;20032;-59
2021/04/22 04:44:19;;;;;;;3.33;2.95;;;20.70;51.70;;;;;;5085957;28;20477;-59
2021/04/22 04:46:45;;;;;;;3.72;2.88;;;20.60;51.60;;;;;;5083973;28;20021;-60
2021/04/22 04:49:10;;;;;;;3.25;2.53;;;20.60;51.60;;;;;;5085752;28;20033;-56
2021/04/22 04:51:36;;;;;;;4.30;2.53;;;20.60;51.50;;;;;;5085300;28;20047;-59
2021/04/22 04:54:03;;;;;;;4.95;2.67;;;20.60;51.50;;;;;;5086549;28;20016;-58
2021/04/22 04:56:30;;;;;;;3.95;2.90;;;20.60;51.50;;;;;;5087490;28;20119;-63
2021/04/22 04:58:56;;;;;;;4.88;3.40;;;20.70;51.50;;;;;;5086599;28;20036;-47
2021/04/22 05:01:21;;;;;;;3.75;3.10;;;20.70;51.50;;;;;;5086458;28;20039;-61
2021/04/22 05:03:47;;;;;;;3.10;2.80;;;20.60;51.40;;;;;;5091030;28;20349;-58
2021/04/22 05:06:13;;;;;;;3.17;2.80;;;20.60;51.40;;;;;;5092161;28;20526;-61
2021/04/22 05:08:39;;;;;;;3.17;2.80;;;20.70;51.40;;;;;;5091295;28;20028;-58
2021/04/22 05:11:05;;;;;;;4.05;3.00;;;20.60;51.30;;;;;;5092262;28;20024;-59
2021/04/22 05:13:30;;;;;;;3.63;2.80;;;20.70;51.40;;;;;;5090242;28;20032;-61
2021/04/22 05:15:58;;;;;;;3.13;2.75;;;20.60;51.30;;;;;;5091886;28;20035;-57
2021/04/22 05:18:24;;;;;;;4.43;2.83;;;20.60;51.30;;;;;;5091754;28;20031;-59
2021/04/22 05:20:51;;;;;;;4.28;2.65;;;20.60;51.90;;;;;;5091615;28;20618;-57
2021/04/22 05:23:17;;;;;;;4.00;3.00;;;20.60;51.20;;;;;;5091736;28;20024;-58
2021/04/22 05:25:43;;;;;;;3.30;2.63;;;20.70;51.30;;;;;;5090741;28;20036;-57
2021/04/22 05:28:08;;;;;;;4.15;2.70;;;20.70;51.30;;;;;;5091626;28;20081;-59
2021/04/22 05:30:34;;;;;;;9.77;2.85;;;20.70;51.30;;;;;;5090999;28;20053;-59
2021/04/22 05:32:59;;;;;;;3.38;2.65;;;20.70;51.30;;;;;;5091272;28;20038;-58
2021/04/22 05:35:25;;;;;;;6.07;2.80;;;20.70;51.40;;;;;;5091421;28;20473;-58
2021/04/22 05:37:51;;;;;;;2.88;2.58;;;20.70;51.40;;;;;;5090581;28;20028;-52
2021/04/22 05:40:18;;;;;;;3.90;2.85;;;20.70;51.30;;;;;;5090443;28;20095;-58
2021/04/22 05:42:44;;;;;;;4.65;2.60;;;20.70;51.40;;;;;;5090595;28;20036;-59
2021/04/22 05:45:10;;;;;;;5.30;2.53;;;20.70;51.40;;;;;;5091456;28;20028;-58
2021/04/22 05:47:35;;;;;;;3.13;2.20;;;20.70;51.40;;;;;;5089541;28;20473;-56
2021/04/22 05:50:01;;;;;;;8.38;2.97;;;20.70;51.40;;;;;;5091502;28;20043;-58
2021/04/22 05:52:27;;;;;;;4.93;2.90;;;20.70;51.40;;;;;;5091309;28;20043;-59
2021/04/22 05:54:52;;;;;;;7.00;2.33;;;20.80;51.60;;;;;;5090400;28;20107;-50
2021/04/22 05:57:18;;;;;;;5.32;2.55;;;20.80;51.60;;;;;;5091615;28;20062;-58
2021/04/22 05:59:43;;;;;;;3.88;2.47;;;20.80;51.80;;;;;;5090122;28;20043;-56
2021/04/22 06:02:12;;;;;;;5.97;2.47;;;20.80;51.70;;;;;;5085743;28;20384;-59
2021/04/22 06:04:37;;;;;;;5.43;2.60;;;20.80;51.70;;;;;;5090401;28;20131;-58
2021/04/22 06:07:03;;;;;;;7.05;2.60;;;20.80;51.70;;;;;;5075955;28;20100;-59
2021/04/22 06:09:29;;;;;;;6.38;2.67;;;20.80;51.80;;;;;;5086509;28;20448;-60
2021/04/22 06:11:54;;;;;;;9.95;3.28;;;20.80;52.00;;;;;;5089625;28;20036;-59
2021/04/22 06:14:20;;;;;;;7.00;2.75;;;20.70;52.10;;;;;;5089773;28;20016;-59
2021/04/22 06:16:45;;;;;;;4.07;2.80;;;20.70;52.10;;;;;;5090676;28;20103;-59
2021/04/22 06:19:11;;;;;;;6.68;3.05;;;20.70;52.10;;;;;;5090753;28;20046;-58
2021/04/22 06:21:37;;;;;;;8.02;2.80;;;20.70;52.10;;;;;;5089908;28;20102;-59
2021/04/22 06:24:03;;;;;;;4.95;2.90;;;20.80;52.00;;;;;;5090715;28;20469;-59
2021/04/22 06:26:31;;;;;;;6.70;2.97;;;20.70;52.00;;;;;;5090179;28;20025;-61
2021/04/22 06:29:00;;;;;;;9.73;2.72;;;20.70;52.00;;;;;;5090368;28;20021;-59
2021/04/22 06:31:25;;;;;;;5.57;2.97;;;20.70;52.10;;;;;;5090482;28;20366;-59
2021/04/22 06:33:51;;;;;;;6.38;2.90;;;20.70;52.20;;;;;;5088311;28;20031;-59
2021/04/22 06:36:19;;;;;;;5.43;3.28;;;20.80;52.40;;;;;;5090657;28;20389;-53
2021/04/22 06:38:44;;;;;;;6.88;2.60;;;20.80;52.60;;;;;;5093048;28;20111;-59
2021/04/22 06:41:10;;;;;;;6.97;2.90;;;20.70;52.50;;;;;;5094849;28;20111;-58
2021/04/22 06:43:36;;;;;;;8.02;3.20;;;20.70;52.40;;;;;;5092390;28;20123;-58
2021/04/22 06:46:02;;;;;;;5.88;3.53;;;20.80;52.50;;;;;;5093713;28;20021;-58
2021/04/22 06:48:27;;;;;;;5.68;2.85;;;20.70;52.50;;;;;;5094270;28;20028;-59
2021/04/22 06:50:53;;;;;;;4.88;2.60;;;20.70;52.50;;;;;;5093116;28;20119;-59
2021/04/22 06:53:18;;;;;;;6.30;2.90;;;20.70;52.40;;;;;;5094661;28;20047;-58
2021/04/22 06:55:44;;;;;;;4.15;2.65;;;20.80;52.30;;;;;;5093289;28;20043;-57
2021/04/22 06:58:10;;;;;;;5.80;2.67;;;20.80;52.30;;;;;;5094191;28;20024;-54
2021/04/22 07:00:39;;;;;;;8.15;2.88;;;20.80;52.30;;;;;;5092787;28;20085;-59
2021/04/22 07:03:05;;;;;;;6.45;2.90;;;20.80;52.20;;;;;;5093400;28;20104;-59
2021/04/22 07:05:31;;;;;;;8.18;3.05;;;20.70;52.20;;;;;;5093750;28;20385;-60
2021/04/22 07:07:57;;;;;;;6.95;3.30;;;20.80;52.20;;;;;;5086279;28;20024;-59
2021/04/22 07:10:24;;;;;;;5.18;3.30;;;20.80;52.20;;;;;;5093734;28;20107;-60
2021/04/22 07:12:50;;;;;;;6.05;2.78;;;20.70;52.10;;;;;;5093312;28;20048;-59
2021/04/22 07:15:16;;;;;;;4.00;2.60;;;20.70;52.10;;;;;;5094148;28;20362;-58
2021/04/22 07:17:42;;;;;;;5.05;3.35;;;20.70;52.00;;;;;;5084037;28;20075;-58
2021/04/22 07:20:12;;;;;;;6.82;3.35;;;20.80;52.00;;;;;;5094319;28;20070;-58
2021/04/22 07:22:38;;;;;;;3.70;2.20;;;20.70;51.90;;;;;;5093124;28;20443;-59
2021/04/22 07:25:05;;;;;;;4.97;2.22;;;20.70;51.90;;;;;;5094031;28;20032;-59
2021/04/22 07:27:31;;;;;;;4.10;2.63;;;20.70;51.80;;;;;;5093590;28;20089;-60
2021/04/22 07:29:56;;;;;;;3.47;2.47;;;20.70;51.80;;;;;;5093285;28;20036;-59
2021/04/22 07:32:22;;;;;;;5.35;2.70;;;20.70;51.70;;;;;;5093301;28;20469;-58
2021/04/22 07:34:48;;;;;;;4.68;2.35;;;20.70;51.70;;;;;;5092927;28;20498;-58
2021/04/22 07:37:18;;;;;;;5.15;2.40;;;20.70;51.60;;;;;;5093020;28;20024;-58
2021/04/22 07:39:45;;;;;;;5.25;2.95;;;20.70;51.70;;;;;;5080494;28;20134;-59
2021/04/22 07:42:11;;;;;;;6.53;2.45;;;20.70;51.90;;;;;;5094355;28;20034;-59
2021/04/22 07:44:37;;;;;;;3.53;2.38;;;20.80;52.00;;;;;;5093122;28;20040;-59
2021/04/22 07:47:03;;;;;;;5.15;2.60;;;20.80;52.00;;;;;;5092210;28;20024;-59
2021/04/22 07:49:29;;;;;;;5.70;3.15;;;20.70;51.80;;;;;;5093502;28;20024;-60
2021/04/22 07:51:56;;;;;;;4.65;2.70;;;20.80;51.80;;;;;;5084834;28;20028;-59
2021/04/22 07:54:22;;;;;;;3.92;2.42;;;20.70;51.80;;;;;;5093739;28;20035;-59
2021/04/22 07:56:48;;;;;;;6.32;3.70;;;20.70;51.80;;;;;;5092522;28;20067;-57
2021/04/22 07:59:14;;;;;;;8.57;2.83;;;20.70;51.70;;;;;;5093035;28;20036;-59
2021/04/22 08:01:40;;;;;;;9.57;3.38;;;20.80;51.70;;;;;;5091945;28;20081;-59
2021/04/22 08:04:05;;;;;;;3.78;2.75;;;20.70;51.60;;;;;;5092827;28;20048;-59
2021/04/22 08:06:33;;;;;;;3.58;2.53;;;20.70;51.50;;;;;;5089471;28;20085;-61
2021/04/22 08:08:59;;;;;;;4.60;2.80;;;20.80;51.50;;;;;;5088288;28;20039;-59
2021/04/22 08:11:25;;;;;;;2.70;1.80;;;20.80;51.50;;;;;;5087487;28;20047;-58
2021/04/22 08:13:51;;;;;;;3.72;2.40;;;20.80;51.40;;;;;;5092430;28;20028;-58
2021/04/22 08:16:16;;;;;;;4.20;2.20;;;20.80;52.00;;;;;;5092690;28;20534;-59
2021/04/22 08:18:42;;;;;;;5.50;2.30;;;20.80;51.30;;;;;;5091932;28;20031;-58
2021/04/22 08:21:08;;;;;;;4.80;2.63;;;20.80;51.30;;;;;;5091989;28;20389;-58
2021/04/22 08:23:34;;;;;;;3.80;2.42;;;20.80;51.30;;;;;;5092249;28;20028;-60
2021/04/22 08:26:07;;;;;;;2.67;2.25;;;20.80;51.20;;;;;;5092588;28;20032;-59
2021/04/22 08:28:34;;;;;;;4.75;2.35;;;20.80;51.20;;;;;;5092444;28;20123;-60
2021/04/22 08:31:06;;;;;;;4.85;2.28;;;20.80;51.10;;;;;;5092452;28;20028;-58
2021/04/22 08:33:35;;;;;;;4.35;2.65;;;20.80;51.00;;;;;;5092663;28;20064;-58
2021/04/22 08:36:01;;;;;;;5.82;2.80;;;20.80;51.00;;;;;;5091705;28;20119;-58
2021/04/22 08:38:27;;;;;;;4.50;1.98;;;20.80;50.90;;;;;;5091794;28;20028;-59
2021/04/22 08:40:53;;;;;;;3.70;2.30;;;20.80;50.90;;;;;;5091210;28;20092;-58
2021/04/22 08:43:20;;;;;;;4.28;2.30;;;20.80;50.90;;;;;;5091891;28;20105;-59
2021/04/22 08:45:46;;;;;;;3.75;2.30;;;20.80;50.80;;;;;;5091265;28;20024;-61
2021/04/22 08:48:12;;;;;;;4.15;2.45;;;20.80;50.70;;;;;;5091457;28;20039;-57
2021/04/22 08:50:41;;;;;;;2.42;2.03;;;20.80;50.70;;;;;;5091190;28;20024;-59
2021/04/22 08:53:11;;;;;;;4.50;2.30;;;20.80;50.70;;;;;;5092290;28;20060;-59
2021/04/22 08:55:37;;;;;;;3.53;2.38;;;20.80;50.60;;;;;;5090255;28;20032;-61
2021/04/22 08:58:05;;;;;;;3.28;2.35;;;20.80;50.70;;;;;;5090831;28;20082;-58
2021/04/22 09:00:41;;;;;;;3.28;2.20;;;20.80;50.60;;;;;;5090989;28;20040;-59
2021/04/22 09:03:07;;;;;;;2.60;2.10;;;20.80;50.50;;;;;;5091965;28;20060;-59
2021/04/22 09:05:33;;;;;;;3.88;2.20;;;20.80;50.40;;;;;;5091268;28;20075;-57
2021/04/22 09:07:58;;;;;;;3.63;2.20;;;20.80;50.40;;;;;;5088420;28;20115;-58
2021/04/22 09:10:25;;;;;;;3.53;2.30;;;20.80;50.30;;;;;;5089975;28;20024;-59
2021/04/22 09:12:59;;;;;;;4.57;2.38;;;20.80;50.30;;;;;;5091196;28;20520;-60
2021/04/22 09:15:26;;;;;;;3.90;2.55;;;20.80;50.20;;;;;;5091064;28;20378;-58
2021/04/22 09:18:04;;;;;;;3.60;2.20;;;20.80;50.20;;;;;;5091065;28;20038;-58
2021/04/22 09:20:36;;;;;;;3.90;2.30;;;20.80;50.20;;;;;;5091908;28;20440;-59
2021/04/22 09:23:23;;;;;;;5.43;2.20;;;20.80;50.10;;;;;;5090450;28;20028;-58
2021/04/22 09:26:00;;;;;;;3.47;2.25;;;20.80;50.10;;;;;;5090001;28;20058;-60
2021/04/22 09:28:40;;;;;;;4.25;1.90;;;20.80;50.00;;;;;;5091439;28;20032;-59
2021/04/22 09:31:07;;;;;;;3.97;2.03;;;20.80;50.00;;;;;;5091776;28;20028;-59
2021/04/22 09:33:35;;;;;;;2.47;1.90;;;20.90;50.00;;;;;;5091043;28;20468;-58
2021/04/22 09:36:05;;;;;;;3.78;2.25;;;20.90;49.90;;;;;;5090738;28;20023;-58
2021/04/22 09:38:31;;;;;;;3.47;2.13;;;20.80;49.80;;;;;;5091750;28;20124;-58
2021/04/22 09:41:07;;;;;;;3.53;2.10;;;20.90;49.90;;;;;;5090315;28;20135;-58
2021/04/22 09:43:33;;;;;;;3.67;1.98;;;20.80;49.90;;;;;;5091340;28;20020;-59
2021/04/22 09:45:59;;;;;;;2.80;1.90;;;20.80;49.90;;;;;;5090144;28;20624;-58
2021/04/22 09:48:30;;;;;;;3.63;2.00;;;20.80;49.80;;;;;;5091419;28;20457;-58
2021/04/22 09:50:57;;;;;;;3.38;1.92;;;20.80;49.80;;;;;;5090717;28;20052;-58
2021/04/22 09:53:26;;;;;;;2.63;2.00;;;20.90;49.90;;;;;;5091618;28;20055;-58
2021/04/22 09:55:57;;;;;;;2.92;1.70;;;20.90;49.80;;;;;;5089614;28;20073;-59
2021/04/22 09:58:28;;;;;;;2.83;1.65;;;20.90;49.90;;;;;;5091615;28;20103;-58
2021/04/22 10:00:55;;;;;;;3.72;2.13;;;20.90;49.80;;;;;;5089465;28;20097;-60
2021/04/22 10:03:21;;;;;;;3.25;1.88;;;20.80;50.40;;;;;;5090588;28;20117;-58
2021/04/22 10:05:58;;;;;;;4.88;2.00;;;20.80;49.80;;;;;;5090709;28;20407;-59
2021/04/22 10:08:25;;;;;;;3.00;1.92;;;20.90;49.80;;;;;;5090829;28;20052;-59
2021/04/22 10:11:03;;;;;;;3.53;1.70;;;20.80;49.70;;;;;;5091813;28;20089;-59
2021/04/22 10:13:41;;;;;;;3.85;1.90;;;20.80;49.60;;;;;;5095101;28;20488;-59
2021/04/22 10:16:07;;;;;;;3.78;1.85;;;20.80;49.70;;;;;;5095496;28;20078;-59
2021/04/22 10:18:42;;;;;;;2.92;1.88;;;20.90;49.70;;;;;;5097257;28;20028;-60
2021/04/22 10:21:07;;;;;;;2.60;1.70;;;20.90;49.70;;;;;;5093952;28;20028;-60
2021/04/22 10:23:33;;;;;;;3.47;1.48;;;20.90;49.60;;;;;;5094934;28;20031;-58
2021/04/22 10:25:59;;;;;;;2.33;1.75;;;20.90;49.70;;;;;;5094332;28;20028;-59
2021/04/22 10:28:25;;;;;;;3.08;1.60;;;20.90;49.80;;;;;;5094635;28;20024;-58
2021/04/22 10:30:55;;;;;;;3.88;1.92;;;20.90;49.60;;;;;;5090178;28;20032;-59
2021/04/22 10:33:21;;;;;;;3.50;2.42;;;20.90;49.60;;;;;;5095129;28;20043;-60
2021/04/22 10:35:47;;;;;;;3.22;1.80;;;20.90;49.50;;;;;;5094874;28;20024;-59
2021/04/22 10:38:14;;;;;;;2.83;1.52;;;20.90;49.50;;;;;;5094865;28;20032;-58
2021/04/22 10:40:48;;;;;;;5.25;1.65;;;20.90;49.50;;;;;;5094177;28;20064;-61
2021/04/22 10:43:21;;;;;;;3.40;1.73;;;20.90;49.40;;;;;;5094498;28;20481;-59
2021/04/22 10:45:47;;;;;;;2.80;1.52;;;20.90;49.50;;;;;;5093975;28;20024;-58
2021/04/22 10:48:13;;;;;;;2.85;1.85;;;20.90;49.40;;;;;;5094728;28;20078;-58
2021/04/22 10:50:44;;;;;;;3.10;1.23;;;20.90;49.30;;;;;;5094297;28;20024;-61
2021/04/22 10:53:13;;;;;;;2.88;1.20;;;20.90;49.30;;;;;;5094619;28;20039;-59
2021/04/22 10:55:43;;;;;;;2.80;1.60;;;20.90;49.30;;;;;;5094027;28;20054;-60
2021/04/22 10:58:22;;;;;;;2.40;1.42;;;20.90;49.20;;;;;;5094525;28;20115;-58
2021/04/22 11:00:57;;;;;;;3.38;1.60;;;20.90;49.10;;;;;;5093477;28;20425;-59
2021/04/22 11:03:37;;;;;;;3.25;1.80;;;20.90;49.10;;;;;;5094402;28;20118;-59
2021/04/22 11:06:09;;;;;;;4.45;1.83;;;20.90;49.00;;;;;;5093476;28;20102;-60
2021/04/22 11:08:41;;;;;;;3.45;1.50;;;20.90;49.00;;;;;;5094033;28;20503;-61
2021/04/22 11:11:17;;;;;;;4.18;1.42;;;20.90;48.90;;;;;;5093734;28;20173;-58
2021/04/22 11:13:43;;;;;;;2.40;1.45;;;20.90;48.90;;;;;;5092276;28;20038;-60
2021/04/22 11:16:10;;;;;;;2.85;1.48;;;20.90;48.80;;;;;;5093786;28;20153;-60
2021/04/22 11:18:47;;;;;;;5.47;1.88;;;20.90;48.80;;;;;;5092715;28;20047;-58
2021/04/22 11:21:46;;;;;;;5.10;1.90;;;20.90;48.70;;;;;;5092908;28;20024;-58
2021/04/22 11:24:12;;;;;;;3.88;1.77;;;20.90;48.70;;;;;;5087151;28;20062;-57
2021/04/22 11:26:37;;;;;;;4.70;1.60;;;20.90;48.70;;;;;;5092324;28;20024;-60
2021/04/22 11:29:12;;;;;;;6.47;2.15;;;20.90;48.70;;;;;;5093309;28;20433;-58
2021/04/22 11:31:49;;;;;;;4.55;1.80;;;20.90;48.60;;;;;;5093712;28;20032;-59
2021/04/22 11:34:16;;;;;;;8.85;2.10;;;20.90;48.60;;;;;;5087330;28;20035;-58
2021/04/22 11:36:52;;;;;;;4.18;2.10;;;20.90;48.50;;;;;;5093176;28;20079;-60
2021/04/22 11:39:33;;;;;;;5.97;2.38;;;20.90;48.50;;;;;;5092111;28;20465;-60
2021/04/22 11:42:01;;;;;;;5.28;2.03;;;20.90;48.30;;;;;;5092786;28;20054;-58
2021/04/22 11:44:48;;;;;;;5.78;2.10;;;20.90;48.30;;;;;;5093764;28;20068;-57
2021/04/22 11:47:24;;;;;;;6.18;2.33;;;20.90;48.30;;;;;;5093140;28;20373;-58
2021/04/22 11:50:11;;;;;;;4.45;1.92;;;20.90;48.30;;;;;;5080416;28;20051;-59
2021/04/22 11:52:46;;;;;;;4.65;2.00;;;20.90;48.20;;;;;;5093770;28;20118;-57
2021/04/22 11:55:18;;;;;;;4.40;1.80;;;20.90;48.20;;;;;;5093760;28;20016;-59
2021/04/22 11:58:09;;;;;;;5.28;1.90;;;20.90;48.10;;;;;;5092874;28;20036;-60
2021/04/22 12:00:45;;;;;;;5.28;2.13;;;20.90;48.10;;;;;;5093407;28;20021;-59
2021/04/22 12:03:13;;;;;;;6.43;2.10;;;20.90;48.50;;;;;;5093184;28;20036;-58
2021/04/22 12:05:40;;;;;;;7.18;2.30;;;20.90;48.50;;;;;;5091578;28;20473;-60
2021/04/22 12:08:11;;;;;;;8.63;2.78;;;20.90;48.50;;;;;;5092067;28;20037;-58
2021/04/22 12:10:40;;;;;;;5.07;2.20;;;20.90;48.60;;;;;;5093302;28;20024;-60
2021/04/22 12:13:11;;;;;;;3.00;2.25;;;20.90;48.50;;;;;;5096448;28;20036;-59
2021/04/22 12:15:43;;;;;;;4.97;2.00;;;20.90;47.40;;;;;;5093015;28;20028;-57
2021/04/22 12:18:10;;;;;;;5.40;1.67;;;20.80;46.20;;;;;;5092532;28;20266;-59
2021/04/22 12:20:37;;;;;;;4.75;1.80;;;20.70;39.70;;;;;;5092942;28;20028;-59
2021/04/22 12:23:03;;;;;;;4.47;1.92;;;20.70;38.90;;;;;;5091987;28;20042;-59
2021/04/22 12:25:28;;;;;;;7.07;1.90;;;20.70;38.50;;;;;;5092741;28;20028;-58
2021/04/22 12:28:05;;;;;;;4.30;1.70;;;20.70;38.00;;;;;;5090397;28;20038;-59
2021/04/22 12:30:31;;;;;;;3.28;1.63;;;20.70;38.60;;;;;;5092546;28;20538;-59
2021/04/22 12:33:06;;;;;;;5.25;1.75;;;20.60;37.90;;;;;;5084072;28;20040;-59
2021/04/22 12:35:33;;;;;;;6.28;1.77;;;20.70;36.90;;;;;;5090307;28;20043;-59
2021/04/22 12:38:22;;;;;;;3.13;1.83;;;20.60;36.60;;;;;;5092575;28;20032;-59
2021/04/22 12:40:57;;;;;;;7.25;2.08;;;20.70;37.20;;;;;;5090552;28;20434;-59
2021/04/22 12:43:26;;;;;;;5.75;2.05;;;20.60;36.70;;;;;;5092353;28;20062;-58
2021/04/22 12:45:53;;;;;;;5.03;1.63;;;20.60;36.30;;;;;;5091061;28;20473;-59
2021/04/22 12:48:19;;;;;;;6.05;1.90;;;20.60;35.90;;;;;;5092211;28;20038;-59
2021/04/22 12:50:47;;;;;;;4.43;1.67;;;20.60;35.60;;;;;;5091685;28;20473;-61